This is the latest recevied weather packets stored in our database for station/object CT1ETE-13. If no packets are shown the sender has not sent any weather packets the latest 10 day(s).
| Time | Temp. | Humidity | Pressure | Rain* | Wind** | Luminosity | Snow |
|---|---|---|---|---|---|---|---|
| 1787526268 | 18.89° C | 76% | 1011.1 hPa | 0 mm | - | 1591 W/m² | - |
| 1787525371 | 19.44° C | 77% | 1011.2 hPa | 0 mm | - | 1580 W/m² | - |
| 1787524466 | 19.44° C | 78% | 1011.1 hPa | 0.25 mm | - | 1589 W/m² | - |
| 1787523566 | 19.44° C | 76% | 1011.1 hPa | 0.25 mm | - | 1591 W/m² | - |
| 1787522727 | 19.44° C | 73% | 1011.1 hPa | 0.51 mm | - | 1665 W/m² | - |
| 1787521824 | 19.44° C | 72% | 1011.2 hPa | 0.51 mm | - | 1652 W/m² | - |
| 1787520922 | 19.44° C | 71% | 1011.5 hPa | 0.25 mm | - | 1770 W/m² | - |
| 1787519962 | 19.44° C | 73% | 1011.6 hPa | 0.51 mm | - | 1765 W/m² | - |
| 1787519060 | 19.44° C | 72% | 1012.1 hPa | 0.25 mm | - | 1782 W/m² | - |
| 1787518159 | 19.44° C | 73% | 1012.4 hPa | 0.51 mm | - | 1782 W/m² | - |
| 1787517256 | 19.44° C | 75% | 1012.3 hPa | 0.76 mm | - | 1781 W/m² | - |
| 1787516356 | 19.44° C | 78% | 1011.8 hPa | 0.51 mm | - | 1781 W/m² | - |
| 1787515456 | 19.44° C | 80% | 1011.7 hPa | 1.52 mm | - | 1782 W/m² | - |
| 1787514556 | 19.44° C | 82% | 1012.7 hPa | 1.02 mm | - | - | - |
| 1787513654 | 20° C | 84% | 1012.1 hPa | 0.76 mm | - | - | - |
| 1787512751 | 20° C | 85% | 1012 hPa | 0.76 mm | - | - | - |
| 1787511851 | 20.56° C | 82% | 1012.8 hPa | 0 mm | - | - | - |
| 1787510951 | 21.67° C | 80% | 1011.3 hPa | 0 mm | - | - | - |
| 1787510113 | 21.67° C | 80% | 1011.1 hPa | 0 mm | - | - | - |
| 1787509205 | 21.67° C | 79% | 1011.1 hPa | 0 mm | - | - | - |
| 1787508306 | 22.22° C | 76% | 1011.2 hPa | 0 mm | - | - | - |
| 1787507346 | 23.89° C | 69% | 1011.5 hPa | 0 mm | - | - | - |
| 1787506446 | 24.44° C | 65% | 1011.4 hPa | 0 mm | - | - | - |
| 1787505604 | 25.56° C | 62% | 1011.3 hPa | 0 mm | - | - | - |
| 1787504642 | 25.56° C | 62% | 1011.1 hPa | 0 mm | - | - | - |
* Rain latest hour (hover to see other rain measurements)
** Current wind speed in m/s (hover to see current wind gust speed)